Time;durP1;ratioP1;P1;durP2;ratioP2;P2;SDS_P1;SDS_P2;PMS_P1;PMS_P2;Temp;Humidity;BMP_temperature;BMP_pressure;BME280_temperature;BME280_humidity;BME280_pressure;Samples;Min_cycle;Max_cycle;Signal;HPM_P1;HPM_P2
2021/12/03 00:01:07;;;;;;;4.43;2.15;;;-0.20;99.90;;;;;;5093784;28;20695;-93
2021/12/03 00:03:35;;;;;;;4.70;2.20;;;-0.10;99.90;;;;;;5095034;28;20243;-93
2021/12/03 00:06:03;;;;;;;4.15;1.60;;;0.10;99.90;;;;;;5094779;28;20280;-92
2021/12/03 00:08:29;;;;;;;3.55;2.20;;;-0.20;99.90;;;;;;5093736;28;20212;-93
2021/12/03 00:10:59;;;;;;;6.20;2.30;;;-0.20;99.90;;;;;;5094899;28;20714;-93
2021/12/03 00:13:27;;;;;;;4.75;2.35;;;-0.20;99.90;;;;;;5094810;28;20246;-93
2021/12/03 00:15:56;;;;;;;3.15;1.92;;;0.00;99.90;;;;;;5093534;28;20686;-94
2021/12/03 00:18:23;;;;;;;6.05;2.50;;;-0.20;99.90;;;;;;5094242;28;20220;-93
2021/12/03 00:20:52;;;;;;;4.70;2.30;;;-0.20;99.90;;;;;;5093646;28;20181;-92
2021/12/03 00:23:21;;;;;;;3.67;2.65;;;-0.20;99.90;;;;;;5093412;28;20208;-94
2021/12/03 00:25:47;;;;;;;4.93;2.30;;;-0.30;99.90;;;;;;5094244;28;20655;-93
2021/12/03 00:28:14;;;;;;;4.60;2.15;;;-0.30;99.90;;;;;;5093421;28;20212;-92
2021/12/03 00:30:41;;;;;;;2.65;2.28;;;-0.30;99.90;;;;;;5094429;28;20220;-92
2021/12/03 00:33:09;;;;;;;7.15;2.38;;;-0.30;99.90;;;;;;5093494;28;20703;-90
2021/12/03 00:35:36;;;;;;;2.65;2.38;;;-0.30;99.90;;;;;;5093915;28;20261;-90
2021/12/03 00:38:04;;;;;;;8.68;2.70;;;-0.30;99.90;;;;;;5092829;28;20292;-90
2021/12/03 00:40:33;;;;;;;6.30;3.00;;;-0.30;99.90;;;;;;5093999;28;20224;-90
2021/12/03 00:43:02;;;;;;;6.07;2.55;;;-0.30;99.90;;;;;;5090348;28;21913;-90
2021/12/03 00:45:29;;;;;;;8.63;2.45;;;-0.30;99.90;;;;;;5088397;28;20188;-91
2021/12/03 00:47:56;;;;;;;2.70;2.50;;;-0.30;99.90;;;;;;5092731;28;20199;-85
2021/12/03 00:50:24;;;;;;;8.20;4.53;;;-0.30;99.90;;;;;;5094443;28;20271;-94
2021/12/03 00:52:52;;;;;;;5.28;2.00;;;-0.30;99.90;;;;;;5103812;28;20200;-93
2021/12/03 00:55:22;;;;;;;6.63;2.40;;;-0.30;99.90;;;;;;5105373;28;20224;-93
2021/12/03 00:57:49;;;;;;;3.75;2.05;;;-0.40;99.90;;;;;;5104401;28;20196;-90
2021/12/03 01:00:19;;;;;;;3.88;1.98;;;-0.40;99.90;;;;;;5094229;28;20598;-92
2021/12/03 01:02:46;;;;;;;5.65;2.45;;;-0.40;99.90;;;;;;5083564;28;20289;-92
2021/12/03 01:05:13;;;;;;;4.22;1.65;;;-0.40;99.90;;;;;;5093602;28;20220;-92
2021/12/03 01:07:39;;;;;;;2.25;1.67;;;-0.40;99.90;;;;;;5093496;28;20208;-93
2021/12/03 01:10:08;;;;;;;4.22;1.92;;;-0.40;99.90;;;;;;5093072;28;20234;-90
2021/12/03 01:12:36;;;;;;;4.30;2.00;;;-0.30;99.90;;;;;;5092888;28;20193;-87
2021/12/03 01:15:03;;;;;;;3.13;2.10;;;-0.30;99.90;;;;;;5092767;28;20655;-91
2021/12/03 01:17:30;;;;;;;3.72;2.28;;;-0.30;99.90;;;;;;5093432;28;20253;-91
2021/12/03 01:19:59;;;;;;;4.50;2.15;;;-0.40;99.90;;;;;;5092656;28;20216;-92
2021/12/03 01:22:25;;;;;;;6.35;2.10;;;-0.30;99.90;;;;;;5093213;28;20647;-89
2021/12/03 01:24:52;;;;;;;4.10;2.05;;;-0.30;99.90;;;;;;5092490;28;20220;-89
2021/12/03 01:27:19;;;;;;;5.22;2.65;;;-0.30;99.90;;;;;;5093227;28;20216;-90
2021/12/03 01:29:47;;;;;;;5.40;2.22;;;-0.40;99.90;;;;;;5092776;28;20223;-90
2021/12/03 01:32:13;;;;;;;4.13;2.55;;;-0.30;99.90;;;;;;5092457;28;20263;-87
2021/12/03 01:34:40;;;;;;;5.90;2.20;;;-0.40;99.90;;;;;;5092201;28;20590;-89
2021/12/03 01:37:07;;;;;;;2.38;1.85;;;-0.20;99.90;;;;;;5092524;28;20743;-90
2021/12/03 01:39:34;;;;;;;2.75;1.92;;;-0.30;99.90;;;;;;5092801;28;20184;-90
2021/12/03 01:42:00;;;;;;;3.63;1.92;;;-0.30;99.90;;;;;;5092695;28;20217;-90
2021/12/03 01:44:27;;;;;;;5.10;2.15;;;-0.30;99.90;;;;;;5092558;28;20215;-87
2021/12/03 01:46:55;;;;;;;7.93;2.55;;;-0.30;99.90;;;;;;5096586;28;20215;-88
2021/12/03 01:49:23;;;;;;;5.03;1.70;;;-0.30;99.90;;;;;;5096201;28;20612;-87
2021/12/03 01:51:50;;;;;;;2.95;2.22;;;-0.30;99.90;;;;;;5096306;28;20284;-88
2021/12/03 01:54:17;;;;;;;6.47;2.00;;;-0.30;99.90;;;;;;5095987;28;20663;-85
2021/12/03 01:56:43;;;;;;;2.50;2.13;;;-0.30;99.90;;;;;;5096824;28;20216;-87
2021/12/03 01:59:10;;;;;;;6.95;2.38;;;-0.30;99.90;;;;;;5096461;28;20271;-87
2021/12/03 02:01:37;;;;;;;4.03;2.00;;;0.20;99.90;;;;;;5095794;28;20276;-87
2021/12/03 02:04:05;;;;;;;5.03;2.20;;;-0.30;99.90;;;;;;5096586;28;20615;-91
2021/12/03 02:06:32;;;;;;;2.63;2.00;;;-0.20;99.90;;;;;;5097223;28;20192;-87
2021/12/03 02:08:59;;;;;;;2.95;1.60;;;-0.20;99.90;;;;;;5096402;28;20212;-86
2021/12/03 02:11:27;;;;;;;3.78;2.17;;;0.30;99.90;;;;;;5096249;28;20208;-87
2021/12/03 02:13:53;;;;;;;5.40;2.22;;;-0.10;99.90;;;;;;5096104;28;20390;-88
2021/12/03 02:16:21;;;;;;;3.22;1.92;;;-0.10;99.90;;;;;;5096526;28;20279;-87
2021/12/03 02:18:48;;;;;;;4.15;2.10;;;-0.20;99.90;;;;;;5095632;28;20268;-87
2021/12/03 02:21:18;;;;;;;2.97;2.03;;;-0.20;99.90;;;;;;5095705;28;20217;-88
2021/12/03 02:23:45;;;;;;;2.35;2.10;;;-0.10;99.90;;;;;;5096012;28;20220;-88
2021/12/03 02:26:12;;;;;;;4.30;2.13;;;-0.20;99.90;;;;;;5095831;28;20177;-88
2021/12/03 02:28:42;;;;;;;3.97;1.73;;;-0.20;99.90;;;;;;5095662;28;20223;-88
2021/12/03 02:31:08;;;;;;;5.47;1.90;;;-0.10;99.90;;;;;;5095309;28;20184;-88
2021/12/03 02:33:35;;;;;;;3.00;2.50;;;-0.20;99.90;;;;;;5095588;28;20216;-87
2021/12/03 02:36:03;;;;;;;3.10;2.30;;;-0.20;99.90;;;;;;5079165;28;20212;-88
2021/12/03 02:38:31;;;;;;;4.32;2.70;;;-0.20;99.90;;;;;;5096137;28;20219;-90
2021/12/03 02:40:58;;;;;;;6.03;2.00;;;-0.20;99.90;;;;;;5102084;28;20215;-90
2021/12/03 02:43:25;;;;;;;3.97;2.47;;;-0.20;99.90;;;;;;5105085;28;20195;-90
2021/12/03 02:45:53;;;;;;;7.53;2.30;;;-0.20;99.90;;;;;;5096848;28;20227;-90
2021/12/03 02:48:21;;;;;;;4.78;2.17;;;-0.20;99.90;;;;;;5094916;28;20184;-90
2021/12/03 02:50:48;;;;;;;2.10;1.90;;;-0.20;99.90;;;;;;5095687;28;20260;-87
2021/12/03 02:53:15;;;;;;;3.65;2.40;;;-0.20;99.90;;;;;;5095091;28;20208;-88
2021/12/03 02:55:43;;;;;;;5.68;2.40;;;-0.20;99.90;;;;;;5095193;28;20304;-88
2021/12/03 02:58:12;;;;;;;3.50;2.20;;;-0.20;99.90;;;;;;5094407;28;20612;-88
2021/12/03 03:00:39;;;;;;;5.10;2.75;;;-0.10;99.90;;;;;;5095486;28;20555;-88
2021/12/03 03:03:06;;;;;;;2.53;1.90;;;0.00;99.90;;;;;;5095502;28;20224;-87
2021/12/03 03:05:33;;;;;;;4.75;2.40;;;0.00;99.90;;;;;;5095578;28;20279;-87
2021/12/03 03:08:00;;;;;;;3.92;2.30;;;0.10;99.90;;;;;;5094987;28;20660;-86
2021/12/03 03:10:30;;;;;;;4.18;2.50;;;0.10;99.90;;;;;;5094887;28;20177;-86
2021/12/03 03:12:59;;;;;;;2.50;2.30;;;0.20;99.90;;;;;;5094782;28;20255;-86
2021/12/03 03:15:26;;;;;;;3.60;2.22;;;0.20;99.90;;;;;;5095305;28;20307;-87
2021/12/03 03:17:52;;;;;;;2.90;2.13;;;0.20;99.90;;;;;;5095331;28;20276;-87
2021/12/03 03:20:19;;;;;;;5.85;2.13;;;0.30;99.90;;;;;;5094640;28;20267;-87
2021/12/03 03:22:47;;;;;;;2.45;2.17;;;0.20;99.90;;;;;;5094510;28;20263;-87
2021/12/03 03:25:16;;;;;;;3.70;1.80;;;0.10;99.90;;;;;;5094760;28;20280;-86
2021/12/03 03:27:46;;;;;;;2.35;2.08;;;0.10;99.90;;;;;;5094607;28;20624;-87
2021/12/03 03:30:18;;;;;;;3.85;2.38;;;0.10;99.90;;;;;;5095099;28;20219;-88
2021/12/03 03:32:45;;;;;;;4.22;2.20;;;0.00;99.90;;;;;;5094566;28;20176;-88
2021/12/03 03:35:12;;;;;;;2.42;1.90;;;0.00;99.90;;;;;;5094741;28;20276;-87
2021/12/03 03:37:40;;;;;;;2.45;2.00;;;0.00;99.90;;;;;;5094428;28;20275;-86
2021/12/03 03:40:09;;;;;;;2.50;2.05;;;0.00;99.90;;;;;;5094864;28;20189;-88
2021/12/03 03:42:36;;;;;;;2.33;1.98;;;0.00;99.90;;;;;;5095036;28;20223;-88
2021/12/03 03:45:04;;;;;;;2.00;1.80;;;0.00;99.90;;;;;;5094703;28;20275;-88
2021/12/03 03:47:32;;;;;;;3.75;2.55;;;-0.10;99.90;;;;;;5094361;28;20215;-86
2021/12/03 03:49:59;;;;;;;7.47;2.17;;;-0.10;99.90;;;;;;5094661;28;20185;-86
2021/12/03 03:52:27;;;;;;;2.22;1.90;;;-0.10;99.90;;;;;;5094536;28;20259;-86
2021/12/03 03:54:54;;;;;;;8.13;2.53;;;-0.10;99.90;;;;;;5094577;28;20730;-86
2021/12/03 03:57:21;;;;;;;2.92;2.15;;;-0.10;99.90;;;;;;5094823;28;20279;-86
2021/12/03 03:59:47;;;;;;;8.63;2.47;;;-0.10;99.90;;;;;;5094625;28;20275;-89
2021/12/03 04:02:14;;;;;;;2.90;2.20;;;-0.20;99.90;;;;;;5094137;28;20212;-88
2021/12/03 04:04:42;;;;;;;5.38;2.40;;;-0.20;99.90;;;;;;5094015;28;20211;-88
2021/12/03 04:07:08;;;;;;;5.38;2.45;;;-0.20;99.90;;;;;;5093917;28;20227;-88
2021/12/03 04:09:35;;;;;;;5.50;2.65;;;0.30;99.90;;;;;;5093913;28;20275;-88
2021/12/03 04:12:02;;;;;;;4.05;2.58;;;-0.20;99.90;;;;;;5076790;28;20208;-88
2021/12/03 04:14:28;;;;;;;12.48;3.30;;;-0.20;99.90;;;;;;5094102;28;20291;-86
2021/12/03 04:16:55;;;;;;;6.03;2.25;;;-0.20;99.90;;;;;;5093593;28;20220;-86
2021/12/03 04:19:21;;;;;;;7.63;3.05;;;-0.20;99.90;;;;;;5093985;28;20224;-85
2021/12/03 04:21:49;;;;;;;4.20;2.75;;;-0.20;99.90;;;;;;5093152;28;20212;-85
2021/12/03 04:24:16;;;;;;;3.88;2.70;;;-0.20;99.90;;;;;;5093908;28;20208;-89
2021/12/03 04:26:43;;;;;;;8.30;2.67;;;-0.20;99.90;;;;;;5095222;28;20268;-87
2021/12/03 04:29:09;;;;;;;4.55;3.03;;;-0.20;99.90;;;;;;5094308;28;20634;-87
2021/12/03 04:31:36;;;;;;;3.08;2.78;;;-0.20;99.90;;;;;;5093250;28;20216;-87
2021/12/03 04:34:03;;;;;;;7.28;2.80;;;-0.20;99.90;;;;;;5076651;28;20236;-87
2021/12/03 04:36:29;;;;;;;4.03;2.45;;;-0.10;99.90;;;;;;5093376;28;20576;-87
2021/12/03 04:38:57;;;;;;;5.22;2.67;;;-0.10;99.90;;;;;;5093782;28;20660;-87
2021/12/03 04:41:24;;;;;;;3.53;2.72;;;-0.20;99.90;;;;;;5093672;28;20610;-87
2021/12/03 04:43:50;;;;;;;3.33;2.42;;;-0.20;99.90;;;;;;5093844;28;20275;-87
2021/12/03 04:46:19;;;;;;;6.43;2.58;;;0.00;99.90;;;;;;5093591;28;20614;-89
2021/12/03 04:48:46;;;;;;;3.28;2.20;;;-0.20;99.90;;;;;;5092385;28;20188;-89
2021/12/03 04:51:13;;;;;;;7.32;2.42;;;-0.20;99.90;;;;;;5093178;28;20709;-89
2021/12/03 04:53:39;;;;;;;3.53;2.72;;;-0.20;99.90;;;;;;5093368;28;20723;-89
2021/12/03 04:56:07;;;;;;;8.82;3.20;;;-0.20;99.90;;;;;;5093312;28;20319;-90
2021/12/03 04:58:34;;;;;;;3.55;2.58;;;-0.20;99.90;;;;;;5093311;28;20224;-89
2021/12/03 05:01:02;;;;;;;3.08;2.63;;;-0.20;99.90;;;;;;5093623;28;20212;-85
2021/12/03 05:03:29;;;;;;;5.30;2.63;;;-0.20;99.90;;;;;;5077518;28;20272;-84
2021/12/03 05:05:59;;;;;;;5.25;3.20;;;-0.20;99.90;;;;;;5092682;28;20279;-85
2021/12/03 05:08:28;;;;;;;3.13;2.80;;;-0.20;99.90;;;;;;5093574;28;20181;-85
2021/12/03 05:10:56;;;;;;;3.80;2.10;;;-0.30;99.90;;;;;;5092717;28;20224;-85
2021/12/03 05:13:26;;;;;;;3.00;2.28;;;-0.20;99.90;;;;;;5093322;28;20192;-86
2021/12/03 05:15:53;;;;;;;4.97;2.65;;;-0.30;99.90;;;;;;5093235;28;20235;-85
2021/12/03 05:18:21;;;;;;;8.35;2.65;;;-0.10;99.90;;;;;;5093060;28;20272;-86
2021/12/03 05:20:49;;;;;;;4.28;2.72;;;-0.30;99.90;;;;;;5092645;28;20187;-86
2021/12/03 05:23:16;;;;;;;4.10;2.63;;;-0.20;99.90;;;;;;5092726;28;20208;-87
2021/12/03 05:25:43;;;;;;;2.90;1.88;;;-0.20;99.90;;;;;;5093092;28;20636;-87
2021/12/03 05:28:10;;;;;;;2.80;2.03;;;-0.20;99.90;;;;;;5092695;28;20545;-86
2021/12/03 05:30:38;;;;;;;3.95;3.03;;;-0.30;99.90;;;;;;5093082;28;20223;-86
2021/12/03 05:33:05;;;;;;;4.97;2.63;;;-0.20;99.90;;;;;;5092773;28;20573;-89
2021/12/03 05:35:32;;;;;;;5.22;2.38;;;-0.20;99.90;;;;;;5092271;28;20779;-89
2021/12/03 05:37:59;;;;;;;5.10;2.55;;;-0.30;99.90;;;;;;5092844;28;20703;-89
2021/12/03 05:40:26;;;;;;;5.45;2.30;;;-0.20;99.90;;;;;;5093275;28;20176;-89
2021/12/03 05:42:52;;;;;;;4.43;2.22;;;-0.30;99.90;;;;;;5092396;28;20272;-89
2021/12/03 05:45:22;;;;;;;2.72;2.28;;;-0.30;99.90;;;;;;5092418;28;20272;-89
2021/12/03 05:47:50;;;;;;;4.20;1.80;;;-0.30;99.90;;;;;;5092713;28;20193;-88
2021/12/03 05:50:18;;;;;;;5.15;2.30;;;-0.30;99.90;;;;;;5093275;28;20216;-89
2021/12/03 05:52:46;;;;;;;7.93;2.63;;;0.30;99.90;;;;;;5092617;28;20209;-88
2021/12/03 05:55:13;;;;;;;3.90;2.08;;;-0.20;99.90;;;;;;5092218;28;20232;-88
2021/12/03 05:57:40;;;;;;;7.07;2.58;;;-0.20;99.90;;;;;;5092063;28;20274;-89
2021/12/03 06:00:12;;;;;;;4.25;2.60;;;-0.20;99.90;;;;;;5092973;28;20275;-86
2021/12/03 06:02:39;;;;;;;6.65;2.50;;;-0.20;99.90;;;;;;5093190;28;20234;-84
2021/12/03 06:05:07;;;;;;;8.23;2.42;;;-0.20;99.90;;;;;;5092919;28;20275;-85
2021/12/03 06:07:34;;;;;;;4.95;2.60;;;-0.20;99.90;;;;;;5092469;28;20220;-85
2021/12/03 06:10:01;;;;;;;4.13;2.50;;;-0.20;99.90;;;;;;5091874;28;20636;-84
2021/12/03 06:12:27;;;;;;;9.75;3.67;;;-0.20;99.90;;;;;;5092736;28;20208;-88
2021/12/03 06:14:54;;;;;;;3.90;3.50;;;-0.20;99.90;;;;;;5092943;28;20300;-88
2021/12/03 06:17:20;;;;;;;9.73;3.03;;;-0.20;99.90;;;;;;5092947;28;20279;-89
2021/12/03 06:19:47;;;;;;;9.50;2.58;;;-0.20;99.90;;;;;;5092208;28;20276;-88
2021/12/03 06:22:15;;;;;;;3.58;2.60;;;-0.10;99.90;;;;;;5092616;28;20177;-87
2021/12/03 06:24:41;;;;;;;5.28;2.30;;;-0.20;99.90;;;;;;5092756;28;20220;-88
2021/12/03 06:27:09;;;;;;;5.68;2.08;;;-0.10;99.90;;;;;;5092631;28;20185;-88
2021/12/03 06:29:35;;;;;;;5.15;1.85;;;-0.10;99.90;;;;;;5092502;28;20594;-88
2021/12/03 06:32:02;;;;;;;4.45;2.40;;;-0.10;99.90;;;;;;5076133;28;20272;-86
2021/12/03 06:34:28;;;;;;;6.25;2.78;;;-0.10;99.90;;;;;;5095943;28;20272;-86
2021/12/03 06:36:55;;;;;;;11.70;2.80;;;-0.10;99.90;;;;;;5095309;28;20189;-86
2021/12/03 06:39:23;;;;;;;4.97;3.08;;;-0.10;99.90;;;;;;5096296;28;20351;-86
2021/12/03 06:41:50;;;;;;;8.35;2.53;;;0.00;99.90;;;;;;5096284;28;20212;-87
2021/12/03 06:44:17;;;;;;;2.90;2.10;;;-0.10;99.90;;;;;;5095266;28;20208;-88
2021/12/03 06:46:45;;;;;;;5.78;2.50;;;0.00;99.90;;;;;;5096122;28;20189;-86
2021/12/03 06:49:11;;;;;;;4.75;2.70;;;0.00;99.90;;;;;;5094297;28;20192;-86
2021/12/03 06:51:42;;;;;;;3.92;2.75;;;-0.10;99.90;;;;;;5095739;28;20276;-91
2021/12/03 06:54:10;;;;;;;3.95;2.60;;;0.00;99.90;;;;;;5095218;28;20574;-88
2021/12/03 06:56:47;;;;;;;4.38;2.78;;;0.00;99.90;;;;;;5095440;28;20311;-89
2021/12/03 06:59:15;;;;;;;3.92;2.67;;;0.00;99.90;;;;;;5095176;28;20184;-89
2021/12/03 07:01:41;;;;;;;5.47;3.10;;;0.00;99.90;;;;;;5094542;28;20215;-89
2021/12/03 07:04:08;;;;;;;4.55;2.60;;;0.00;99.90;;;;;;5094804;28;20271;-91
2021/12/03 07:06:34;;;;;;;3.92;3.30;;;0.10;99.90;;;;;;5095940;28;20215;-90
2021/12/03 07:09:01;;;;;;;4.18;3.20;;;0.10;99.90;;;;;;5096094;28;20280;-90
2021/12/03 07:11:28;;;;;;;5.50;2.90;;;0.20;99.90;;;;;;5095631;28;20320;-87
2021/12/03 07:13:55;;;;;;;7.55;3.70;;;0.20;99.90;;;;;;5095014;28;20227;-88
2021/12/03 07:16:23;;;;;;;4.75;3.05;;;0.40;99.90;;;;;;5094726;28;20205;-85
2021/12/03 07:18:50;;;;;;;2.53;2.15;;;0.30;99.90;;;;;;5094578;28;20246;-90
2021/12/03 07:21:17;;;;;;;4.70;2.90;;;0.40;99.90;;;;;;5094572;28;20652;-87
2021/12/03 07:23:43;;;;;;;5.65;3.75;;;0.40;99.90;;;;;;5092909;28;20184;-87
2021/12/03 07:26:10;;;;;;;7.00;3.63;;;0.50;99.90;;;;;;5095455;28;20192;-91
2021/12/03 07:28:37;;;;;;;5.47;4.05;;;0.50;99.90;;;;;;5095421;28;20696;-92
2021/12/03 07:31:04;;;;;;;3.47;2.70;;;0.60;99.90;;;;;;5093597;28;20215;-90
2021/12/03 07:33:31;;;;;;;3.55;2.95;;;0.70;99.90;;;;;;5093806;28;20177;-93
2021/12/03 07:35:58;;;;;;;5.05;3.22;;;1.10;99.90;;;;;;5093646;28;20230;-92
2021/12/03 07:38:25;;;;;;;7.95;3.55;;;0.90;99.90;;;;;;5094310;28;20525;-92
2021/12/03 07:40:52;;;;;;;6.38;3.30;;;1.00;99.90;;;;;;5091631;28;20185;-93
2021/12/03 07:43:19;;;;;;;5.05;3.40;;;1.10;99.90;;;;;;5094282;28;20679;-93
2021/12/03 07:45:47;;;;;;;7.80;3.05;;;1.20;99.90;;;;;;5094067;28;20263;-93
2021/12/03 07:48:15;;;;;;;4.65;2.75;;;1.20;99.90;;;;;;5091700;28;20311;-95
2021/12/03 07:50:42;;;;;;;3.08;2.78;;;1.20;99.90;;;;;;5093126;28;20267;-91
2021/12/03 07:53:13;;;;;;;7.03;3.28;;;1.30;99.90;;;;;;5094912;28;20524;-93
2021/12/03 07:55:40;;;;;;;7.00;3.22;;;1.40;99.90;;;;;;5092716;28;20274;-92
2021/12/03 07:58:07;;;;;;;5.38;3.42;;;1.40;99.90;;;;;;5093371;28;20224;-91
2021/12/03 08:00:33;;;;;;;5.57;3.50;;;1.60;99.90;;;;;;5091968;28;20552;-90
2021/12/03 08:03:00;;;;;;;5.05;3.20;;;1.70;99.90;;;;;;5093490;28;20267;-90
2021/12/03 08:05:28;;;;;;;7.20;3.17;;;1.80;99.90;;;;;;5093133;28;20262;-90
2021/12/03 08:07:55;;;;;;;4.45;3.25;;;1.90;99.90;;;;;;5093403;28;20602;-89
2021/12/03 08:10:22;;;;;;;4.90;2.97;;;2.00;99.90;;;;;;5092492;28;20181;-90
2021/12/03 08:12:48;;;;;;;5.38;3.15;;;2.10;99.90;;;;;;5089915;28;20652;-90
2021/12/03 08:15:16;;;;;;;5.03;4.20;;;2.10;99.90;;;;;;5092503;28;20315;-89
2021/12/03 08:17:42;;;;;;;4.05;2.85;;;2.10;99.90;;;;;;5093072;28;20872;-94
2021/12/03 08:20:11;;;;;;;11.48;4.43;;;2.10;99.90;;;;;;5090393;28;20268;-94
2021/12/03 08:22:39;;;;;;;5.70;3.60;;;2.20;99.90;;;;;;5090326;28;20213;-86
2021/12/03 08:25:07;;;;;;;5.90;3.42;;;2.30;99.90;;;;;;5092848;28;20663;-82
2021/12/03 08:27:34;;;;;;;5.10;3.47;;;2.40;99.90;;;;;;5092912;28;20221;-80
2021/12/03 08:30:00;;;;;;;5.88;4.03;;;2.50;99.90;;;;;;5093110;28;20250;-82
2021/12/03 08:32:27;;;;;;;5.45;2.97;;;2.50;99.90;;;;;;5093395;28;20540;-81
2021/12/03 08:34:54;;;;;;;4.20;2.80;;;2.50;99.90;;;;;;5093070;28;20522;-89
2021/12/03 08:37:20;;;;;;;4.40;3.13;;;2.60;99.90;;;;;;5093049;28;20220;-88
2021/12/03 08:39:48;;;;;;;8.48;3.80;;;2.60;99.90;;;;;;5092820;28;20216;-79
2021/12/03 08:42:16;;;;;;;9.50;3.40;;;2.70;99.90;;;;;;5092747;28;20300;-80
2021/12/03 08:44:42;;;;;;;3.75;3.10;;;2.70;99.90;;;;;;5092917;28;20211;-80
2021/12/03 08:47:09;;;;;;;6.15;4.53;;;2.70;99.90;;;;;;5092795;28;20632;-79
2021/12/03 08:49:38;;;;;;;6.82;3.53;;;2.70;99.90;;;;;;5092410;28;20283;-80
2021/12/03 08:52:27;;;;;;;7.20;3.72;;;2.60;99.90;;;;;;5076273;28;20188;-80
2021/12/03 08:54:55;;;;;;;5.95;3.40;;;2.70;99.90;;;;;;5091891;28;20213;-80
2021/12/03 08:57:24;;;;;;;5.28;3.55;;;2.70;99.90;;;;;;5092077;28;20240;-80
2021/12/03 08:59:52;;;;;;;9.02;4.03;;;2.70;99.90;;;;;;5092389;28;20596;-80
2021/12/03 09:02:19;;;;;;;6.57;2.85;;;2.70;99.90;;;;;;5091466;28;20727;-80
2021/12/03 09:04:46;;;;;;;5.00;2.90;;;2.60;99.90;;;;;;5092473;28;20272;-80
2021/12/03 09:07:13;;;;;;;3.45;2.55;;;2.70;99.90;;;;;;5092287;28;20238;-80
2021/12/03 09:09:40;;;;;;;4.68;3.50;;;2.70;99.90;;;;;;5092365;28;20188;-79
2021/12/03 09:12:08;;;;;;;4.30;2.83;;;2.80;99.90;;;;;;5092328;28;20264;-80
2021/12/03 09:14:39;;;;;;;4.38;2.80;;;2.90;99.90;;;;;;5092636;28;20177;-80
2021/12/03 09:17:19;;;;;;;3.70;2.63;;;2.90;99.90;;;;;;5092316;28;20667;-83
2021/12/03 09:19:52;;;;;;;4.38;3.10;;;3.00;99.90;;;;;;5092392;28;20219;-81
2021/12/03 09:22:30;;;;;;;7.22;3.17;;;3.00;99.90;;;;;;5092316;28;20176;-80
2021/12/03 09:24:57;;;;;;;3.60;3.20;;;3.00;99.90;;;;;;5092391;28;20594;-80
2021/12/03 09:27:25;;;;;;;3.60;2.70;;;3.00;99.90;;;;;;5092219;28;20594;-80
2021/12/03 09:29:54;;;;;;;3.67;2.85;;;3.00;99.90;;;;;;5092218;28;20264;-80
2021/12/03 09:32:22;;;;;;;4.85;3.08;;;3.00;99.90;;;;;;5092379;28;20193;-80
2021/12/03 09:34:48;;;;;;;3.13;2.88;;;3.10;99.90;;;;;;5091004;28;20197;-80
2021/12/03 09:37:15;;;;;;;4.30;2.88;;;3.10;99.90;;;;;;5092065;28;20302;-79
2021/12/03 09:39:44;;;;;;;4.82;3.08;;;3.20;99.90;;;;;;5090767;28;20231;-80
2021/12/03 09:42:11;;;;;;;5.20;2.70;;;3.20;99.90;;;;;;5090555;28;20185;-80
2021/12/03 09:44:40;;;;;;;4.18;2.60;;;3.20;99.90;;;;;;5091526;28;20181;-80
2021/12/03 09:47:07;;;;;;;3.15;2.85;;;3.20;99.90;;;;;;5089520;28;20224;-80
2021/12/03 09:49:35;;;;;;;6.55;2.70;;;3.20;99.90;;;;;;5092065;28;20279;-80
2021/12/03 09:52:09;;;;;;;4.43;2.40;;;3.30;99.90;;;;;;5091542;28;20197;-80
2021/12/03 09:54:40;;;;;;;4.55;3.50;;;3.40;99.90;;;;;;5087606;28;20239;-80
2021/12/03 09:57:11;;;;;;;7.03;2.80;;;3.50;99.90;;;;;;5091851;28;20266;-80
2021/12/03 10:11:23;;;;;;;5.30;3.60;;;3.50;99.90;;;;;;5095158;28;20541;-80
2021/12/03 10:13:46;;;;;;;3.47;2.53;;;3.50;99.90;;;;;;5095349;28;20184;-80
2021/12/03 10:16:25;;;;;;;6.05;2.92;;;3.40;99.90;;;;;;5095589;28;20301;-80
2021/12/03 10:18:54;;;;;;;4.35;2.90;;;3.30;99.90;;;;;;5093116;28;20176;-80
2021/12/03 10:21:58;;;;;;;3.58;2.38;;;3.30;99.90;;;;;;5094084;28;20189;-80
2021/12/03 10:24:59;;;;;;;3.85;2.75;;;3.30;99.90;;;;;;5093805;28;20234;-78
2021/12/03 10:30:33;;;;;;;2.75;2.13;;;3.30;99.90;;;;;;5094703;28;20188;-79
2021/12/03 10:33:25;;;;;;;4.88;2.05;;;3.30;99.90;;;;;;5094397;28;20223;-79
2021/12/03 10:38:58;;;;;;;2.88;1.92;;;3.30;99.90;;;;;;5052238;28;20661;-79
2021/12/03 10:41:31;;;;;;;3.03;2.28;;;3.20;99.90;;;;;;5085774;28;20192;-80
2021/12/03 10:44:11;;;;;;;3.00;2.33;;;3.20;99.90;;;;;;5094901;28;20679;-80
2021/12/03 10:49:41;;;;;;;4.10;2.20;;;3.20;99.90;;;;;;5088459;28;20181;-80
2021/12/03 10:52:24;;;;;;;4.25;2.90;;;3.20;99.90;;;;;;5079143;28;20664;-80
2021/12/03 10:55:17;;;;;;;4.07;2.70;;;3.10;99.90;;;;;;5094888;28;20208;-80
2021/12/03 10:58:05;;;;;;;5.15;2.60;;;3.20;99.90;;;;;;5094724;28;20212;-80
2021/12/03 11:12:19;;;;;;;2.25;2.05;;;3.20;99.90;;;;;;5094218;28;20188;-80
2021/12/03 11:29:20;;;;;;;2.95;2.38;;;3.20;99.90;;;;;;5069330;28;20196;-80
2021/12/03 11:35:07;;;;;;;6.75;3.13;;;3.20;99.90;;;;;;5069131;28;20193;-80
2021/12/03 11:37:58;;;;;;;3.20;2.30;;;3.20;99.90;;;;;;5070586;28;20189;-80
2021/12/03 12:05:04;;;;;;;6.95;3.55;;;3.70;99.90;;;;;;5068212;28;20186;-80
2021/12/03 12:17:12;;;;;;;6.25;2.50;;;3.90;99.90;;;;;;5068039;28;20204;-80
2021/12/03 12:20:10;;;;;;;10.43;2.90;;;3.90;99.90;;;;;;5067626;28;20229;-80
2021/12/03 12:35:17;;;;;;;2.80;2.60;;;4.10;99.90;;;;;;5054539;28;20664;-80
2021/12/03 13:11:59;;;;;;;4.68;3.10;;;4.10;99.90;;;;;;5089233;28;20241;-80
2021/12/03 14:00:33;;;;;;;7.07;4.50;;;3.70;99.90;;;;;;5053860;28;20641;-81
2021/12/03 14:12:05;;;;;;;5.28;4.63;;;3.70;99.90;;;;;;5031835;28;20193;-81
2021/12/03 14:40:16;;;;;;;6.70;5.53;;;3.10;99.90;;;;;;5035680;28;20210;-81
2021/12/03 14:42:54;;;;;;;8.95;5.63;;;3.00;99.90;;;;;;5054722;28;20273;-81
2021/12/03 14:45:45;;;;;;;7.97;6.22;;;3.00;99.90;;;;;;5054189;28;20649;-81
2021/12/03 14:51:14;;;;;;;9.50;6.47;;;2.90;99.90;;;;;;5018151;28;20197;-80
2021/12/03 14:53:59;;;;;;;10.85;7.68;;;2.90;99.90;;;;;;5054355;28;20549;-80
2021/12/03 14:56:32;;;;;;;12.50;7.57;;;2.90;99.90;;;;;;5054434;28;20186;-80
2021/12/03 14:59:13;;;;;;;10.95;6.85;;;2.90;99.90;;;;;;5054347;28;20214;-80
2021/12/03 15:01:48;;;;;;;10.10;6.55;;;2.90;99.90;;;;;;5056728;28;20277;-80
2021/12/03 15:04:35;;;;;;;7.60;6.80;;;2.90;99.90;;;;;;5061088;28;20562;-81
2021/12/03 15:07:08;;;;;;;8.73;7.50;;;2.90;99.90;;;;;;5064396;28;20192;-80
2021/12/03 15:09:37;;;;;;;9.73;6.68;;;2.90;99.90;;;;;;5057350;28;20190;-80
2021/12/03 15:12:43;;;;;;;10.73;7.47;;;2.90;99.90;;;;;;5054183;28;20186;-80
2021/12/03 15:21:08;;;;;;;16.92;6.85;;;2.90;99.90;;;;;;5053941;28;20304;-79
2021/12/03 15:24:18;;;;;;;10.45;7.50;;;2.90;99.90;;;;;;5053430;28;20732;-79
2021/12/03 15:29:51;;;;;;;10.60;7.85;;;3.00;99.90;;;;;;5053401;28;20205;-80
2021/12/03 15:32:29;;;;;;;8.23;6.40;;;3.00;99.90;;;;;;5039798;28;20185;-79
2021/12/03 15:35:03;;;;;;;13.35;7.65;;;2.90;99.90;;;;;;5053716;28;20190;-80
2021/12/03 15:40:25;;;;;;;11.93;7.32;;;2.90;99.90;;;;;;5054023;28;20267;-80
2021/12/03 15:54:35;;;;;;;9.15;6.20;;;2.90;99.90;;;;;;5060019;28;20189;-80
2021/12/03 15:57:15;;;;;;;7.78;6.50;;;2.80;99.90;;;;;;5061991;28;20277;-80
2021/12/03 16:05:25;;;;;;;8.57;5.90;;;2.90;99.90;;;;;;5053739;28;20680;-81
2021/12/03 16:08:09;;;;;;;9.32;7.43;;;2.90;99.90;;;;;;5053685;28;20291;-94
2021/12/03 16:10:46;;;;;;;8.65;6.55;;;2.90;99.90;;;;;;5054252;28;20206;-93
2021/12/03 16:13:25;;;;;;;9.43;6.68;;;2.90;99.90;;;;;;5054813;28;20190;-93
2021/12/03 16:18:51;;;;;;;8.48;5.63;;;2.90;99.90;;;;;;5055097;28;20570;-93
2021/12/03 16:21:31;;;;;;;5.65;4.90;;;3.00;99.90;;;;;;5053548;28;20197;-94
2021/12/03 16:46:10;;;;;;;5.55;4.60;;;2.80;99.90;;;;;;5038232;28;20257;-93
2021/12/03 16:51:34;;;;;;;6.85;4.40;;;2.80;99.90;;;;;;5053559;28;20186;-90
2021/12/03 16:54:06;;;;;;;5.70;4.80;;;2.60;99.90;;;;;;5054606;28;20185;-93
2021/12/03 16:56:35;;;;;;;10.32;5.35;;;2.70;99.90;;;;;;5054375;28;20200;-85
2021/12/03 16:59:02;;;;;;;5.13;4.45;;;2.70;99.90;;;;;;5058705;28;20202;-83
2021/12/03 17:01:35;;;;;;;7.55;4.43;;;2.70;99.90;;;;;;5052277;28;20704;-83
2021/12/03 17:04:10;;;;;;;6.25;5.43;;;2.70;99.90;;;;;;5052067;28;20228;-84
2021/12/03 17:10:00;;;;;;;7.75;4.72;;;2.80;99.90;;;;;;5052754;28;20231;-87
2021/12/03 17:15:32;;;;;;;6.57;4.30;;;2.80;99.90;;;;;;5052430;28;20253;-85
2021/12/03 17:48:59;;;;;;;5.93;4.00;;;2.80;99.90;;;;;;5046843;28;20653;-90
2021/12/03 17:51:45;;;;;;;9.07;4.30;;;2.80;99.90;;;;;;5062337;28;20182;-90
2021/12/03 17:54:40;;;;;;;5.25;3.95;;;2.80;99.90;;;;;;5066095;28;20616;-91
2021/12/03 17:57:13;;;;;;;7.53;4.30;;;2.80;99.90;;;;;;5050951;28;20277;-90
2021/12/03 17:59:43;;;;;;;4.70;4.30;;;2.80;99.90;;;;;;5051582;28;20271;-90
2021/12/03 18:02:19;;;;;;;15.98;10.60;;;2.80;99.90;;;;;;5053168;28;20597;-89
2021/12/03 18:05:04;;;;;;;8.32;5.55;;;2.80;99.90;;;;;;5054326;28;20194;-90
2021/12/03 18:07:40;;;;;;;5.53;5.03;;;2.80;99.90;;;;;;5054253;28;20201;-90
2021/12/03 18:10:33;;;;;;;5.22;4.38;;;2.70;99.90;;;;;;5051610;28;20193;-89
2021/12/03 18:19:09;;;;;;;6.10;4.78;;;2.60;99.90;;;;;;5052710;28;20214;-89
2021/12/03 18:44:18;;;;;;;6.15;5.50;;;2.50;99.90;;;;;;5025460;28;20186;-89